sensor_id;sensor_type;location;lat;lon;timestamp;P1;durP1;ratioP1;P2;durP2;ratioP2
38123;SDS011;23934;47.998;9.832;2023-08-01T00:00:46;4.22;;;2.03;;
38123;SDS011;23934;47.998;9.832;2023-08-01T00:03:12;8.02;;;2.22;;
38123;SDS011;23934;47.998;9.832;2023-08-01T00:05:39;2.72;;;1.92;;
38123;SDS011;23934;47.998;9.832;2023-08-01T00:08:09;8.25;;;2.45;;
38123;SDS011;23934;47.998;9.832;2023-08-01T00:10:37;1.85;;;1.50;;
38123;SDS011;23934;47.998;9.832;2023-08-01T00:13:02;7.30;;;2.00;;
38123;SDS011;23934;47.998;9.832;2023-08-01T00:15:28;5.00;;;1.75;;
38123;SDS011;23934;47.998;9.832;2023-08-01T00:17:54;4.35;;;1.95;;
38123;SDS011;23934;47.998;9.832;2023-08-01T00:20:20;6.80;;;2.30;;
38123;SDS011;23934;47.998;9.832;2023-08-01T00:22:46;7.55;;;2.25;;
38123;SDS011;23934;47.998;9.832;2023-08-01T00:25:13;5.47;;;1.85;;
38123;SDS011;23934;47.998;9.832;2023-08-01T00:27:38;4.13;;;1.23;;
38123;SDS011;23934;47.998;9.832;2023-08-01T00:30:05;3.97;;;1.67;;
38123;SDS011;23934;47.998;9.832;2023-08-01T00:32:31;4.32;;;1.10;;
38123;SDS011;23934;47.998;9.832;2023-08-01T00:34:57;6.57;;;2.15;;
38123;SDS011;23934;47.998;9.832;2023-08-01T00:37:23;5.25;;;1.90;;
38123;SDS011;23934;47.998;9.832;2023-08-01T00:39:49;4.18;;;1.85;;
38123;SDS011;23934;47.998;9.832;2023-08-01T00:42:15;6.43;;;2.88;;
38123;SDS011;23934;47.998;9.832;2023-08-01T00:44:41;4.90;;;2.35;;
38123;SDS011;23934;47.998;9.832;2023-08-01T00:47:07;15.80;;;2.67;;
38123;SDS011;23934;47.998;9.832;2023-08-01T00:49:33;7.78;;;3.10;;
38123;SDS011;23934;47.998;9.832;2023-08-01T00:51:59;4.38;;;2.25;;
38123;SDS011;23934;47.998;9.832;2023-08-01T00:54:25;3.72;;;1.90;;
38123;SDS011;23934;47.998;9.832;2023-08-01T00:56:51;4.72;;;2.20;;
38123;SDS011;23934;47.998;9.832;2023-08-01T00:59:17;7.82;;;2.40;;
38123;SDS011;23934;47.998;9.832;2023-08-01T01:01:43;4.88;;;2.35;;
38123;SDS011;23934;47.998;9.832;2023-08-01T01:04:09;3.88;;;1.88;;
38123;SDS011;23934;47.998;9.832;2023-08-01T01:06:41;5.00;;;2.05;;
38123;SDS011;23934;47.998;9.832;2023-08-01T01:09:14;4.50;;;1.92;;
38123;SDS011;23934;47.998;9.832;2023-08-01T01:11:40;3.38;;;2.13;;
38123;SDS011;23934;47.998;9.832;2023-08-01T01:14:06;7.32;;;2.47;;
38123;SDS011;23934;47.998;9.832;2023-08-01T01:16:32;4.43;;;1.83;;
38123;SDS011;23934;47.998;9.832;2023-08-01T01:18:58;6.10;;;2.10;;
38123;SDS011;23934;47.998;9.832;2023-08-01T01:21:24;5.43;;;2.42;;
38123;SDS011;23934;47.998;9.832;2023-08-01T01:23:50;6.40;;;2.38;;
38123;SDS011;23934;47.998;9.832;2023-08-01T01:26:16;6.63;;;2.58;;
38123;SDS011;23934;47.998;9.832;2023-08-01T01:28:45;3.20;;;1.88;;
38123;SDS011;23934;47.998;9.832;2023-08-01T01:31:12;8.40;;;1.88;;
38123;SDS011;23934;47.998;9.832;2023-08-01T01:33:38;4.10;;;2.22;;
38123;SDS011;23934;47.998;9.832;2023-08-01T01:36:04;3.97;;;1.77;;
38123;SDS011;23934;47.998;9.832;2023-08-01T01:38:30;5.97;;;2.80;;
38123;SDS011;23934;47.998;9.832;2023-08-01T01:40:56;7.07;;;2.47;;
38123;SDS011;23934;47.998;9.832;2023-08-01T01:43:22;4.70;;;2.33;;
38123;SDS011;23934;47.998;9.832;2023-08-01T01:45:48;7.03;;;2.72;;
38123;SDS011;23934;47.998;9.832;2023-08-01T01:48:14;4.35;;;2.20;;
38123;SDS011;23934;47.998;9.832;2023-08-01T01:50:40;3.90;;;1.98;;
38123;SDS011;23934;47.998;9.832;2023-08-01T01:53:05;2.88;;;2.03;;
38123;SDS011;23934;47.998;9.832;2023-08-01T01:55:31;4.47;;;1.90;;
38123;SDS011;23934;47.998;9.832;2023-08-01T01:57:57;5.93;;;2.40;;
38123;SDS011;23934;47.998;9.832;2023-08-01T02:00:23;10.55;;;2.88;;
38123;SDS011;23934;47.998;9.832;2023-08-01T02:02:49;4.95;;;2.50;;
38123;SDS011;23934;47.998;9.832;2023-08-01T02:05:15;3.58;;;2.20;;
38123;SDS011;23934;47.998;9.832;2023-08-01T02:07:41;8.20;;;2.42;;
38123;SDS011;23934;47.998;9.832;2023-08-01T02:10:07;4.82;;;2.33;;
38123;SDS011;23934;47.998;9.832;2023-08-01T02:12:33;5.82;;;1.88;;
38123;SDS011;23934;47.998;9.832;2023-08-01T02:15:00;8.68;;;2.17;;
38123;SDS011;23934;47.998;9.832;2023-08-01T02:17:26;3.50;;;1.75;;
38123;SDS011;23934;47.998;9.832;2023-08-01T02:19:52;4.32;;;1.73;;
38123;SDS011;23934;47.998;9.832;2023-08-01T02:22:18;4.75;;;1.83;;
38123;SDS011;23934;47.998;9.832;2023-08-01T02:24:44;5.20;;;1.90;;
38123;SDS011;23934;47.998;9.832;2023-08-01T02:27:10;10.57;;;1.92;;
38123;SDS011;23934;47.998;9.832;2023-08-01T02:29:36;6.60;;;2.30;;
38123;SDS011;23934;47.998;9.832;2023-08-01T02:32:02;3.97;;;1.95;;
38123;SDS011;23934;47.998;9.832;2023-08-01T02:34:28;3.65;;;2.33;;
38123;SDS011;23934;47.998;9.832;2023-08-01T02:36:54;14.60;;;2.67;;
38123;SDS011;23934;47.998;9.832;2023-08-01T02:39:20;6.18;;;2.55;;
38123;SDS011;23934;47.998;9.832;2023-08-01T02:41:46;5.30;;;2.42;;
38123;SDS011;23934;47.998;9.832;2023-08-01T02:44:12;15.13;;;3.40;;
38123;SDS011;23934;47.998;9.832;2023-08-01T02:46:38;9.25;;;2.38;;
38123;SDS011;23934;47.998;9.832;2023-08-01T02:49:04;13.70;;;2.60;;
38123;SDS011;23934;47.998;9.832;2023-08-01T02:51:30;5.18;;;2.40;;
38123;SDS011;23934;47.998;9.832;2023-08-01T02:53:56;10.65;;;2.85;;
38123;SDS011;23934;47.998;9.832;2023-08-01T02:56:22;4.55;;;1.83;;
38123;SDS011;23934;47.998;9.832;2023-08-01T02:58:48;5.28;;;2.53;;
38123;SDS011;23934;47.998;9.832;2023-08-01T03:01:14;10.27;;;2.60;;
38123;SDS011;23934;47.998;9.832;2023-08-01T03:03:40;6.75;;;2.88;;
38123;SDS011;23934;47.998;9.832;2023-08-01T03:06:06;6.13;;;1.92;;
38123;SDS011;23934;47.998;9.832;2023-08-01T03:08:32;4.32;;;1.90;;
38123;SDS011;23934;47.998;9.832;2023-08-01T03:10:59;1.98;;;1.42;;
38123;SDS011;23934;47.998;9.832;2023-08-01T03:13:24;7.57;;;2.65;;
38123;SDS011;23934;47.998;9.832;2023-08-01T03:15:50;5.20;;;2.25;;
38123;SDS011;23934;47.998;9.832;2023-08-01T03:18:16;3.35;;;1.58;;
38123;SDS011;23934;47.998;9.832;2023-08-01T03:20:42;6.03;;;2.00;;
38123;SDS011;23934;47.998;9.832;2023-08-01T03:23:08;12.15;;;2.38;;
38123;SDS011;23934;47.998;9.832;2023-08-01T03:25:34;8.77;;;3.05;;
38123;SDS011;23934;47.998;9.832;2023-08-01T03:28:00;8.63;;;2.85;;
38123;SDS011;23934;47.998;9.832;2023-08-01T03:30:26;3.45;;;1.90;;
38123;SDS011;23934;47.998;9.832;2023-08-01T03:32:52;8.07;;;2.00;;
38123;SDS011;23934;47.998;9.832;2023-08-01T03:35:18;2.65;;;1.58;;
38123;SDS011;23934;47.998;9.832;2023-08-01T03:37:44;7.35;;;2.30;;
38123;SDS011;23934;47.998;9.832;2023-08-01T03:40:10;8.68;;;3.05;;
38123;SDS011;23934;47.998;9.832;2023-08-01T03:42:36;6.15;;;2.92;;
38123;SDS011;23934;47.998;9.832;2023-08-01T03:45:02;9.48;;;2.60;;
38123;SDS011;23934;47.998;9.832;2023-08-01T03:47:29;2.28;;;1.70;;
38123;SDS011;23934;47.998;9.832;2023-08-01T03:49:55;6.53;;;2.95;;
38123;SDS011;23934;47.998;9.832;2023-08-01T03:52:21;5.82;;;2.40;;
38123;SDS011;23934;47.998;9.832;2023-08-01T03:54:48;4.28;;;2.13;;
38123;SDS011;23934;47.998;9.832;2023-08-01T03:57:14;6.63;;;2.70;;
38123;SDS011;23934;47.998;9.832;2023-08-01T03:59:40;8.57;;;3.72;;
38123;SDS011;23934;47.998;9.832;2023-08-01T04:02:07;4.50;;;1.92;;
38123;SDS011;23934;47.998;9.832;2023-08-01T04:04:33;9.80;;;2.47;;
38123;SDS011;23934;47.998;9.832;2023-08-01T04:06:59;3.70;;;1.83;;
38123;SDS011;23934;47.998;9.832;2023-08-01T04:09:25;6.88;;;2.75;;
38123;SDS011;23934;47.998;9.832;2023-08-01T04:11:51;8.45;;;3.20;;
38123;SDS011;23934;47.998;9.832;2023-08-01T04:14:17;3.67;;;1.70;;
38123;SDS011;23934;47.998;9.832;2023-08-01T04:16:43;7.55;;;3.08;;
38123;SDS011;23934;47.998;9.832;2023-08-01T04:19:09;7.45;;;2.42;;
38123;SDS011;23934;47.998;9.832;2023-08-01T04:21:35;13.70;;;2.88;;
38123;SDS011;23934;47.998;9.832;2023-08-01T04:24:01;3.45;;;1.98;;
38123;SDS011;23934;47.998;9.832;2023-08-01T04:26:27;25.08;;;2.00;;
38123;SDS011;23934;47.998;9.832;2023-08-01T04:28:53;6.47;;;2.78;;
38123;SDS011;23934;47.998;9.832;2023-08-01T04:31:19;6.05;;;2.67;;
38123;SDS011;23934;47.998;9.832;2023-08-01T04:33:45;5.10;;;2.25;;
38123;SDS011;23934;47.998;9.832;2023-08-01T04:36:11;11.35;;;1.70;;
38123;SDS011;23934;47.998;9.832;2023-08-01T04:38:37;5.13;;;2.20;;
38123;SDS011;23934;47.998;9.832;2023-08-01T04:41:02;6.72;;;2.33;;
38123;SDS011;23934;47.998;9.832;2023-08-01T04:43:29;4.88;;;2.00;;
38123;SDS011;23934;47.998;9.832;2023-08-01T04:45:55;6.43;;;3.22;;
38123;SDS011;23934;47.998;9.832;2023-08-01T04:48:20;6.40;;;2.47;;
38123;SDS011;23934;47.998;9.832;2023-08-01T04:50:46;16.42;;;2.97;;
38123;SDS011;23934;47.998;9.832;2023-08-01T04:53:12;9.77;;;3.80;;
38123;SDS011;23934;47.998;9.832;2023-08-01T04:55:39;8.73;;;3.28;;
38123;SDS011;23934;47.998;9.832;2023-08-01T04:58:06;7.60;;;3.55;;
38123;SDS011;23934;47.998;9.832;2023-08-01T05:00:32;7.00;;;2.33;;
38123;SDS011;23934;47.998;9.832;2023-08-01T05:02:58;6.32;;;2.42;;
38123;SDS011;23934;47.998;9.832;2023-08-01T05:05:23;9.10;;;3.00;;
38123;SDS011;23934;47.998;9.832;2023-08-01T05:07:49;6.50;;;2.50;;
38123;SDS011;23934;47.998;9.832;2023-08-01T05:10:15;3.45;;;1.52;;
38123;SDS011;23934;47.998;9.832;2023-08-01T05:12:41;4.68;;;2.10;;
38123;SDS011;23934;47.998;9.832;2023-08-01T05:15:07;8.88;;;2.03;;
38123;SDS011;23934;47.998;9.832;2023-08-01T05:17:33;5.78;;;2.38;;
38123;SDS011;23934;47.998;9.832;2023-08-01T05:19:59;3.88;;;1.80;;
38123;SDS011;23934;47.998;9.832;2023-08-01T05:22:25;6.28;;;2.13;;
38123;SDS011;23934;47.998;9.832;2023-08-01T05:24:51;3.03;;;2.05;;
38123;SDS011;23934;47.998;9.832;2023-08-01T05:27:18;7.07;;;2.03;;
38123;SDS011;23934;47.998;9.832;2023-08-01T05:29:44;17.77;;;2.80;;
38123;SDS011;23934;47.998;9.832;2023-08-01T05:32:10;10.10;;;2.55;;
38123;SDS011;23934;47.998;9.832;2023-08-01T05:34:35;3.75;;;2.33;;
38123;SDS011;23934;47.998;9.832;2023-08-01T05:37:01;4.85;;;2.55;;
38123;SDS011;23934;47.998;9.832;2023-08-01T05:39:27;6.03;;;2.05;;
38123;SDS011;23934;47.998;9.832;2023-08-01T05:41:53;7.82;;;2.03;;
38123;SDS011;23934;47.998;9.832;2023-08-01T05:44:19;5.55;;;2.22;;
38123;SDS011;23934;47.998;9.832;2023-08-01T05:46:45;6.25;;;1.75;;
38123;SDS011;23934;47.998;9.832;2023-08-01T05:49:11;5.03;;;2.20;;
38123;SDS011;23934;47.998;9.832;2023-08-01T05:51:37;5.25;;;1.80;;
38123;SDS011;23934;47.998;9.832;2023-08-01T05:54:03;2.58;;;1.48;;
38123;SDS011;23934;47.998;9.832;2023-08-01T05:56:29;6.43;;;2.35;;
38123;SDS011;23934;47.998;9.832;2023-08-01T05:58:55;3.90;;;1.67;;
38123;SDS011;23934;47.998;9.832;2023-08-01T06:01:21;3.42;;;1.73;;
38123;SDS011;23934;47.998;9.832;2023-08-01T06:03:47;5.60;;;2.63;;
38123;SDS011;23934;47.998;9.832;2023-08-01T06:06:13;3.83;;;1.77;;
38123;SDS011;23934;47.998;9.832;2023-08-01T06:08:39;3.95;;;1.70;;
38123;SDS011;23934;47.998;9.832;2023-08-01T06:11:05;6.30;;;2.20;;
38123;SDS011;23934;47.998;9.832;2023-08-01T06:13:31;2.95;;;1.63;;
38123;SDS011;23934;47.998;9.832;2023-08-01T06:15:57;7.53;;;2.97;;
38123;SDS011;23934;47.998;9.832;2023-08-01T06:18:23;4.75;;;1.95;;
38123;SDS011;23934;47.998;9.832;2023-08-01T06:20:49;4.05;;;2.28;;
38123;SDS011;23934;47.998;9.832;2023-08-01T06:23:15;7.50;;;1.92;;
38123;SDS011;23934;47.998;9.832;2023-08-01T06:25:41;3.83;;;1.73;;
38123;SDS011;23934;47.998;9.832;2023-08-01T06:28:07;2.78;;;1.45;;
38123;SDS011;23934;47.998;9.832;2023-08-01T06:30:33;4.45;;;1.20;;
38123;SDS011;23934;47.998;9.832;2023-08-01T06:32:59;3.22;;;1.42;;
38123;SDS011;23934;47.998;9.832;2023-08-01T06:35:25;6.28;;;2.30;;
38123;SDS011;23934;47.998;9.832;2023-08-01T06:37:51;4.18;;;1.45;;
38123;SDS011;23934;47.998;9.832;2023-08-01T06:40:16;2.03;;;1.15;;
38123;SDS011;23934;47.998;9.832;2023-08-01T06:42:42;3.50;;;1.27;;
38123;SDS011;23934;47.998;9.832;2023-08-01T06:45:08;5.53;;;1.33;;
38123;SDS011;23934;47.998;9.832;2023-08-01T06:47:34;4.60;;;1.60;;
38123;SDS011;23934;47.998;9.832;2023-08-01T06:50:00;2.90;;;1.60;;
38123;SDS011;23934;47.998;9.832;2023-08-01T06:52:26;8.45;;;1.95;;
38123;SDS011;23934;47.998;9.832;2023-08-01T06:54:52;2.13;;;0.95;;
38123;SDS011;23934;47.998;9.832;2023-08-01T06:57:18;4.03;;;1.75;;
38123;SDS011;23934;47.998;9.832;2023-08-01T06:59:44;2.63;;;1.27;;
38123;SDS011;23934;47.998;9.832;2023-08-01T07:02:10;5.45;;;1.63;;
38123;SDS011;23934;47.998;9.832;2023-08-01T07:04:36;2.15;;;0.95;;
38123;SDS011;23934;47.998;9.832;2023-08-01T07:07:03;11.00;;;1.85;;
38123;SDS011;23934;47.998;9.832;2023-08-01T07:09:29;7.03;;;2.30;;
38123;SDS011;23934;47.998;9.832;2023-08-01T07:11:55;2.67;;;1.58;;
38123;SDS011;23934;47.998;9.832;2023-08-01T07:14:21;8.15;;;1.67;;
38123;SDS011;23934;47.998;9.832;2023-08-01T07:16:47;4.07;;;1.58;;
38123;SDS011;23934;47.998;9.832;2023-08-01T07:19:13;6.40;;;1.80;;
38123;SDS011;23934;47.998;9.832;2023-08-01T07:21:39;6.30;;;1.95;;
38123;SDS011;23934;47.998;9.832;2023-08-01T07:24:05;2.30;;;1.38;;
38123;SDS011;23934;47.998;9.832;2023-08-01T07:26:31;5.72;;;1.67;;
38123;SDS011;23934;47.998;9.832;2023-08-01T07:28:57;3.45;;;1.48;;
38123;SDS011;23934;47.998;9.832;2023-08-01T07:31:23;4.30;;;1.50;;
38123;SDS011;23934;47.998;9.832;2023-08-01T07:33:49;4.07;;;1.50;;
38123;SDS011;23934;47.998;9.832;2023-08-01T07:36:15;3.40;;;1.23;;
38123;SDS011;23934;47.998;9.832;2023-08-01T07:38:41;4.05;;;1.33;;
38123;SDS011;23934;47.998;9.832;2023-08-01T07:41:07;3.63;;;1.23;;
38123;SDS011;23934;47.998;9.832;2023-08-01T07:43:33;2.22;;;1.13;;
38123;SDS011;23934;47.998;9.832;2023-08-01T07:45:59;3.53;;;1.60;;
38123;SDS011;23934;47.998;9.832;2023-08-01T07:48:25;2.80;;;1.30;;
38123;SDS011;23934;47.998;9.832;2023-08-01T07:50:51;5.80;;;2.15;;
38123;SDS011;23934;47.998;9.832;2023-08-01T07:53:17;6.10;;;1.80;;
38123;SDS011;23934;47.998;9.832;2023-08-01T07:55:43;5.03;;;1.77;;
38123;SDS011;23934;47.998;9.832;2023-08-01T07:58:09;4.50;;;1.58;;
38123;SDS011;23934;47.998;9.832;2023-08-01T08:00:35;3.63;;;1.50;;
38123;SDS011;23934;47.998;9.832;2023-08-01T08:03:01;6.65;;;2.15;;
38123;SDS011;23934;47.998;9.832;2023-08-01T08:05:27;6.53;;;2.25;;
38123;SDS011;23934;47.998;9.832;2023-08-01T08:07:53;8.70;;;3.03;;
38123;SDS011;23934;47.998;9.832;2023-08-01T08:10:19;10.20;;;2.65;;
38123;SDS011;23934;47.998;9.832;2023-08-01T08:12:45;12.90;;;3.90;;
38123;SDS011;23934;47.998;9.832;2023-08-01T08:15:11;6.40;;;2.00;;
38123;SDS011;23934;47.998;9.832;2023-08-01T08:17:38;3.33;;;1.73;;
38123;SDS011;23934;47.998;9.832;2023-08-01T08:20:04;6.25;;;3.08;;
38123;SDS011;23934;47.998;9.832;2023-08-01T08:22:31;7.30;;;2.40;;
38123;SDS011;23934;47.998;9.832;2023-08-01T08:24:57;3.90;;;1.58;;
38123;SDS011;23934;47.998;9.832;2023-08-01T08:27:23;8.98;;;2.53;;
38123;SDS011;23934;47.998;9.832;2023-08-01T08:29:49;3.42;;;1.58;;
38123;SDS011;23934;47.998;9.832;2023-08-01T08:32:15;5.43;;;2.20;;
38123;SDS011;23934;47.998;9.832;2023-08-01T08:34:41;6.93;;;2.08;;
38123;SDS011;23934;47.998;9.832;2023-08-01T08:37:07;4.07;;;1.95;;
38123;SDS011;23934;47.998;9.832;2023-08-01T08:39:33;7.90;;;1.75;;
38123;SDS011;23934;47.998;9.832;2023-08-01T08:41:59;8.73;;;2.30;;
38123;SDS011;23934;47.998;9.832;2023-08-01T08:44:26;4.78;;;1.90;;
38123;SDS011;23934;47.998;9.832;2023-08-01T08:46:55;4.85;;;2.03;;
38123;SDS011;23934;47.998;9.832;2023-08-01T08:49:25;9.50;;;1.60;;
38123;SDS011;23934;47.998;9.832;2023-08-01T08:51:51;3.55;;;1.60;;
38123;SDS011;23934;47.998;9.832;2023-08-01T08:54:18;5.38;;;1.67;;
38123;SDS011;23934;47.998;9.832;2023-08-01T08:56:45;3.60;;;2.00;;
38123;SDS011;23934;47.998;9.832;2023-08-01T08:59:11;9.48;;;2.17;;
38123;SDS011;23934;47.998;9.832;2023-08-01T09:01:38;4.45;;;1.75;;
38123;SDS011;23934;47.998;9.832;2023-08-01T09:04:04;2.28;;;1.17;;
38123;SDS011;23934;47.998;9.832;2023-08-01T09:06:38;7.28;;;2.42;;
38123;SDS011;23934;47.998;9.832;2023-08-01T09:09:12;5.82;;;2.53;;
38123;SDS011;23934;47.998;9.832;2023-08-01T09:11:48;4.72;;;1.75;;
38123;SDS011;23934;47.998;9.832;2023-08-01T09:14:14;5.68;;;1.63;;
38123;SDS011;23934;47.998;9.832;2023-08-01T09:16:41;4.45;;;1.35;;
38123;SDS011;23934;47.998;9.832;2023-08-01T09:19:07;4.25;;;2.38;;
38123;SDS011;23934;47.998;9.832;2023-08-01T09:21:33;12.02;;;2.63;;
38123;SDS011;23934;47.998;9.832;2023-08-01T09:24:13;6.68;;;1.92;;
38123;SDS011;23934;47.998;9.832;2023-08-01T09:26:39;2.75;;;1.73;;
38123;SDS011;23934;47.998;9.832;2023-08-01T09:29:06;11.15;;;1.75;;
38123;SDS011;23934;47.998;9.832;2023-08-01T09:31:39;5.68;;;2.33;;
38123;SDS011;23934;47.998;9.832;2023-08-01T09:34:06;5.13;;;1.98;;
38123;SDS011;23934;47.998;9.832;2023-08-01T09:36:43;4.13;;;1.85;;
38123;SDS011;23934;47.998;9.832;2023-08-01T09:39:09;6.75;;;1.80;;
38123;SDS011;23934;47.998;9.832;2023-08-01T09:44:10;7.57;;;1.55;;
38123;SDS011;23934;47.998;9.832;2023-08-01T09:46:36;6.70;;;2.53;;
38123;SDS011;23934;47.998;9.832;2023-08-01T09:49:08;3.30;;;1.60;;
38123;SDS011;23934;47.998;9.832;2023-08-01T09:51:46;5.15;;;1.30;;
38123;SDS011;23934;47.998;9.832;2023-08-01T09:54:13;2.20;;;1.25;;
38123;SDS011;23934;47.998;9.832;2023-08-01T09:56:39;7.70;;;1.27;;
38123;SDS011;23934;47.998;9.832;2023-08-01T09:59:05;5.60;;;1.70;;
38123;SDS011;23934;47.998;9.832;2023-08-01T10:01:32;7.55;;;1.60;;
38123;SDS011;23934;47.998;9.832;2023-08-01T10:03:58;4.97;;;1.63;;
38123;SDS011;23934;47.998;9.832;2023-08-01T10:06:28;4.85;;;1.55;;
38123;SDS011;23934;47.998;9.832;2023-08-01T10:08:54;3.78;;;1.40;;
38123;SDS011;23934;47.998;9.832;2023-08-01T10:11:21;5.32;;;1.30;;
38123;SDS011;23934;47.998;9.832;2023-08-01T10:13:47;3.33;;;1.58;;
38123;SDS011;23934;47.998;9.832;2023-08-01T10:16:13;6.05;;;1.95;;
38123;SDS011;23934;47.998;9.832;2023-08-01T10:18:39;5.10;;;2.47;;
38123;SDS011;23934;47.998;9.832;2023-08-01T10:21:06;6.85;;;2.53;;
38123;SDS011;23934;47.998;9.832;2023-08-01T10:23:33;6.88;;;1.70;;
38123;SDS011;23934;47.998;9.832;2023-08-01T10:26:00;5.85;;;2.60;;
38123;SDS011;23934;47.998;9.832;2023-08-01T10:28:33;6.15;;;2.13;;
38123;SDS011;23934;47.998;9.832;2023-08-01T10:31:10;5.38;;;2.40;;
38123;SDS011;23934;47.998;9.832;2023-08-01T10:33:37;6.95;;;1.55;;
38123;SDS011;23934;47.998;9.832;2023-08-01T10:36:21;2.35;;;1.48;;
38123;SDS011;23934;47.998;9.832;2023-08-01T10:38:51;3.65;;;1.45;;
38123;SDS011;23934;47.998;9.832;2023-08-01T10:41:21;2.22;;;1.38;;
38123;SDS011;23934;47.998;9.832;2023-08-01T10:43:47;6.45;;;2.33;;
38123;SDS011;23934;47.998;9.832;2023-08-01T10:46:13;2.83;;;1.60;;
38123;SDS011;23934;47.998;9.832;2023-08-01T10:48:49;3.58;;;1.88;;
38123;SDS011;23934;47.998;9.832;2023-08-01T10:51:15;4.75;;;2.00;;
38123;SDS011;23934;47.998;9.832;2023-08-01T10:53:41;5.68;;;1.98;;
38123;SDS011;23934;47.998;9.832;2023-08-01T10:56:07;5.00;;;1.90;;
38123;SDS011;23934;47.998;9.832;2023-08-01T10:58:34;4.18;;;2.10;;
38123;SDS011;23934;47.998;9.832;2023-08-01T11:01:00;4.15;;;1.38;;
38123;SDS011;23934;47.998;9.832;2023-08-01T11:03:35;6.57;;;2.03;;
38123;SDS011;23934;47.998;9.832;2023-08-01T11:06:02;7.13;;;2.10;;
38123;SDS011;23934;47.998;9.832;2023-08-01T11:08:38;3.67;;;1.73;;
38123;SDS011;23934;47.998;9.832;2023-08-01T11:11:05;8.80;;;2.13;;
38123;SDS011;23934;47.998;9.832;2023-08-01T11:13:31;5.07;;;1.95;;
38123;SDS011;23934;47.998;9.832;2023-08-01T11:15:59;9.77;;;2.17;;
38123;SDS011;23934;47.998;9.832;2023-08-01T11:18:25;11.07;;;3.45;;
38123;SDS011;23934;47.998;9.832;2023-08-01T11:20:52;6.75;;;1.60;;
38123;SDS011;23934;47.998;9.832;2023-08-01T11:23:18;7.57;;;2.05;;
38123;SDS011;23934;47.998;9.832;2023-08-01T11:25:44;5.55;;;2.30;;
38123;SDS011;23934;47.998;9.832;2023-08-01T11:28:15;3.83;;;1.83;;
38123;SDS011;23934;47.998;9.832;2023-08-01T11:30:41;4.55;;;1.92;;
38123;SDS011;23934;47.998;9.832;2023-08-01T11:33:20;3.88;;;1.55;;
38123;SDS011;23934;47.998;9.832;2023-08-01T11:35:53;5.88;;;2.50;;
38123;SDS011;23934;47.998;9.832;2023-08-01T11:38:22;4.30;;;2.08;;
38123;SDS011;23934;47.998;9.832;2023-08-01T11:40:50;5.63;;;1.52;;
38123;SDS011;23934;47.998;9.832;2023-08-01T11:43:16;4.07;;;1.63;;
38123;SDS011;23934;47.998;9.832;2023-08-01T11:45:52;4.00;;;1.65;;
38123;SDS011;23934;47.998;9.832;2023-08-01T11:48:20;4.35;;;1.92;;
38123;SDS011;23934;47.998;9.832;2023-08-01T11:50:47;4.60;;;2.08;;
38123;SDS011;23934;47.998;9.832;2023-08-01T11:53:19;6.38;;;2.65;;
38123;SDS011;23934;47.998;9.832;2023-08-01T11:55:46;2.97;;;1.45;;
38123;SDS011;23934;47.998;9.832;2023-08-01T11:58:12;4.53;;;2.03;;
38123;SDS011;23934;47.998;9.832;2023-08-01T12:00:39;6.57;;;2.13;;
38123;SDS011;23934;47.998;9.832;2023-08-01T12:03:06;2.85;;;1.42;;
38123;SDS011;23934;47.998;9.832;2023-08-01T12:05:33;3.03;;;1.55;;
38123;SDS011;23934;47.998;9.832;2023-08-01T12:08:09;6.05;;;2.45;;
38123;SDS011;23934;47.998;9.832;2023-08-01T12:10:43;2.75;;;1.40;;
38123;SDS011;23934;47.998;9.832;2023-08-01T12:13:19;4.95;;;1.83;;
38123;SDS011;23934;47.998;9.832;2023-08-01T12:15:46;4.82;;;1.92;;
38123;SDS011;23934;47.998;9.832;2023-08-01T12:18:19;3.90;;;1.65;;
38123;SDS011;23934;47.998;9.832;2023-08-01T12:23:11;6.68;;;2.00;;
38123;SDS011;23934;47.998;9.832;2023-08-01T12:25:36;4.60;;;1.77;;
38123;SDS011;23934;47.998;9.832;2023-08-01T12:28:02;2.90;;;1.45;;
38123;SDS011;23934;47.998;9.832;2023-08-01T12:30:28;1.70;;;1.13;;
38123;SDS011;23934;47.998;9.832;2023-08-01T12:32:54;1.98;;;1.27;;
38123;SDS011;23934;47.998;9.832;2023-08-01T12:35:20;3.25;;;1.50;;
38123;SDS011;23934;47.998;9.832;2023-08-01T12:37:46;1.90;;;1.30;;
38123;SDS011;23934;47.998;9.832;2023-08-01T12:40:12;4.80;;;1.33;;
38123;SDS011;23934;47.998;9.832;2023-08-01T12:42:38;2.17;;;1.10;;
38123;SDS011;23934;47.998;9.832;2023-08-01T12:45:04;7.50;;;1.58;;
38123;SDS011;23934;47.998;9.832;2023-08-01T12:47:31;2.00;;;1.25;;
38123;SDS011;23934;47.998;9.832;2023-08-01T12:49:57;3.38;;;1.17;;
38123;SDS011;23934;47.998;9.832;2023-08-01T12:52:23;1.95;;;1.10;;
38123;SDS011;23934;47.998;9.832;2023-08-01T12:54:52;3.63;;;1.20;;
38123;SDS011;23934;47.998;9.832;2023-08-01T12:57:18;3.42;;;1.20;;
38123;SDS011;23934;47.998;9.832;2023-08-01T12:59:44;4.60;;;1.00;;
38123;SDS011;23934;47.998;9.832;2023-08-01T13:02:10;1.63;;;0.77;;
38123;SDS011;23934;47.998;9.832;2023-08-01T13:04:36;1.83;;;0.70;;
38123;SDS011;23934;47.998;9.832;2023-08-01T13:07:02;1.60;;;0.90;;
38123;SDS011;23934;47.998;9.832;2023-08-01T13:09:28;1.60;;;0.77;;
38123;SDS011;23934;47.998;9.832;2023-08-01T13:11:54;2.95;;;0.93;;
38123;SDS011;23934;47.998;9.832;2023-08-01T13:14:21;2.80;;;0.73;;
38123;SDS011;23934;47.998;9.832;2023-08-01T13:16:47;2.05;;;0.85;;
38123;SDS011;23934;47.998;9.832;2023-08-01T13:19:13;1.40;;;0.95;;
38123;SDS011;23934;47.998;9.832;2023-08-01T13:21:39;1.23;;;0.70;;
38123;SDS011;23934;47.998;9.832;2023-08-01T13:24:05;0.38;;;0.20;;
38123;SDS011;23934;47.998;9.832;2023-08-01T13:26:31;0.20;;;0.20;;
38123;SDS011;23934;47.998;9.832;2023-08-01T13:28:57;0.15;;;0.15;;
38123;SDS011;23934;47.998;9.832;2023-08-01T13:31:23;4.35;;;0.30;;
38123;SDS011;23934;47.998;9.832;2023-08-01T13:33:49;0.10;;;0.10;;
38123;SDS011;23934;47.998;9.832;2023-08-01T13:36:17;0.60;;;0.20;;
38123;SDS011;23934;47.998;9.832;2023-08-01T13:38:43;0.57;;;0.10;;
38123;SDS011;23934;47.998;9.832;2023-08-01T13:41:09;1.65;;;0.22;;
38123;SDS011;23934;47.998;9.832;2023-08-01T13:43:35;0.40;;;0.25;;
38123;SDS011;23934;47.998;9.832;2023-08-01T13:46:35;0.20;;;0.20;;
38123;SDS011;23934;47.998;9.832;2023-08-01T13:48:54;1.02;;;0.70;;
38123;SDS011;23934;47.998;9.832;2023-08-01T13:51:20;0.35;;;0.30;;
38123;SDS011;23934;47.998;9.832;2023-08-01T13:53:46;0.40;;;0.20;;
38123;SDS011;23934;47.998;9.832;2023-08-01T13:56:12;0.82;;;0.30;;
38123;SDS011;23934;47.998;9.832;2023-08-01T13:58:39;1.20;;;0.50;;
38123;SDS011;23934;47.998;9.832;2023-08-01T14:01:05;3.97;;;0.85;;
38123;SDS011;23934;47.998;9.832;2023-08-01T14:03:35;2.47;;;0.93;;
38123;SDS011;23934;47.998;9.832;2023-08-01T14:06:18;0.57;;;0.47;;
38123;SDS011;23934;47.998;9.832;2023-08-01T14:08:44;2.45;;;0.30;;
38123;SDS011;23934;47.998;9.832;2023-08-01T14:11:10;1.40;;;0.32;;
38123;SDS011;23934;47.998;9.832;2023-08-01T14:13:36;0.17;;;0.17;;
38123;SDS011;23934;47.998;9.832;2023-08-01T14:16:02;0.32;;;0.32;;
38123;SDS011;23934;47.998;9.832;2023-08-01T14:18:29;0.85;;;0.40;;
38123;SDS011;23934;47.998;9.832;2023-08-01T14:20:55;0.40;;;0.20;;
38123;SDS011;23934;47.998;9.832;2023-08-01T14:23:21;1.65;;;0.38;;
38123;SDS011;23934;47.998;9.832;2023-08-01T14:25:47;0.28;;;0.20;;
38123;SDS011;23934;47.998;9.832;2023-08-01T14:28:13;0.28;;;0.20;;
38123;SDS011;23934;47.998;9.832;2023-08-01T14:30:39;1.90;;;0.40;;
38123;SDS011;23934;47.998;9.832;2023-08-01T14:33:07;1.08;;;0.50;;
38123;SDS011;23934;47.998;9.832;2023-08-01T14:35:34;1.20;;;0.20;;
38123;SDS011;23934;47.998;9.832;2023-08-01T14:38:00;0.20;;;0.20;;
38123;SDS011;23934;47.998;9.832;2023-08-01T14:40:26;0.30;;;0.15;;
38123;SDS011;23934;47.998;9.832;2023-08-01T14:42:52;0.40;;;0.40;;
38123;SDS011;23934;47.998;9.832;2023-08-01T14:45:18;0.40;;;0.30;;
38123;SDS011;23934;47.998;9.832;2023-08-01T14:47:44;0.35;;;0.20;;
38123;SDS011;23934;47.998;9.832;2023-08-01T14:50:11;0.30;;;0.20;;